Historique des mesures à Cassis (13260), France
Quotidien Résumé Avril 17, 2018 Unités:  US    Métrique   Métrique/US
« Précédent (Jour)
Suivant (Jour) »
Quotidien Hebdomadaire Mensuel Annuel Période au choix
  Maximum: Minimum: Moyenne:
Température: 32 °F 59.7 °F 64.4 °F
Point de rosée: 32 °F 47.5 °F 50.9 °F
Humidité: Humidity % 53 % 58 %
Vitesse du vent: WindSpeedKMH mph 0.0 mph 2 mph
Rafales: WindSpeedGustKMH mph - -
Vent:- - SSE
Pression: 0 in 29.9 in -
Précipitations: 0 in    
Historical Graphs
 
 
Mesures pour : Avril 17, 2018
Heure Temperature Point de rosée Pression Vent Vitesse du vent Rafales Humidité Pluie (par heure) Conditions
32 °F 32 °F 0 in Calm     Humidity % 0 in SoftwareType W/m2
00:10 61.7 °F 49.5 °F 29.9 in Calm   3.5 mph 64 % 0 in open2300-1.11 W/m2
01:10 60.6 °F 48.4 °F 29.9 in NNE 1.8 mph 2.6 mph 64 % 0 in open2300-1.11 W/m2
02:12 60.1 °F 48.4 °F 29.9 in NNW 3.2 mph 3.2 mph 65 % 0 in open2300-1.11 W/m2
03:12 59.9 °F 48 °F 29.9 in Calm   2.6 mph 65 % 0 in open2300-1.11 W/m2
04:11 60.6 °F 48.7 °F 29.9 in NNW 4.0 mph 4.7 mph 65 % 0 in open2300-1.11 W/m2
05:11 61 °F 48.4 °F 29.9 in NNW 1.4 mph 2.6 mph 63 % 0 in open2300-1.11 W/m2
06:12 60.6 °F 48 °F 29.9 in North 2.6 mph 3.2 mph 63 % 0 in open2300-1.11 W/m2
07:12 59.7 °F 47.5 °F 29.9 in Calm   1.1 mph 64 % 0 in open2300-1.11 W/m2
08:11 61.5 °F 49.3 °F 30 in Calm   1.1 mph 64 % 0 in open2300-1.11 W/m2
09:11 63 °F 50.5 °F 30 in SE 2.6 mph 3.5 mph 64 % 0 in open2300-1.11 W/m2
10:11 63.3 °F 50.9 °F 30 in SE 2.6 mph 5.0 mph 64 % 0 in open2300-1.11 W/m2
11:11 68.7 °F 55.2 °F 30 in ESE 4.3 mph 5.8 mph 62 % 0 in open2300-1.11 W/m2
12:11 71.8 °F 56.1 °F 30.1 in SE 4.0 mph 6.4 mph 58 % 0 in open2300-1.11 W/m2
13:10 72.7 °F 56.5 °F 30 in SE 5.8 mph 8.2 mph 57 % 0 in open2300-1.11 W/m2
14:10 73.2 °F 55.6 °F 30 in SE 7.2 mph 8.2 mph 54 % 0 in open2300-1.11 W/m2
15:10 73.4 °F 55 °F 30.1 in SE 3.5 mph 3.5 mph 53 % 0 in open2300-1.11 W/m2
16:10 73.2 °F 55 °F 30.1 in Calm   9.3 mph 53 % 0 in open2300-1.11 W/m2
17:10 71.8 °F 55.2 °F 30.1 in ESE 1.4 mph 4.7 mph 56 % 0 in open2300-1.11 W/m2
18:10 69.6 °F 55.6 °F 30.1 in SE 3.2 mph 5.0 mph 61 % 0 in open2300-1.11 W/m2
19:10 68.7 °F 54.3 °F 30.1 in Calm   1.1 mph 60 % 0 in open2300-1.11 W/m2
20:10 67.6 °F 53.2 °F 30.1 in Calm     60 % 0 in open2300-1.11 W/m2
21:10 65.3 °F 50.5 °F 30.1 in Calm   1.1 mph 59 % 0 in open2300-1.11 W/m2
22:10 64 °F 50.4 °F 30.1 in Calm     61 % 0 in open2300-1.11 W/m2
23:12 64.2 °F 49.5 °F 30.1 in NW 2.1 mph 3.5 mph 59 % 0 in open2300-1.11 W/m2
Observations météo à CASSIS
WU-History script by Weather Underground - 1 mb